createdAt,value
2018-08-20T00:00:07.350Z,23.50
2018-08-20T00:00:45.058Z,23.50
2018-08-20T00:01:23.688Z,23.50
2018-08-20T00:01:57.234Z,23.40
2018-08-20T00:02:37.036Z,23.50
2018-08-20T00:03:10.823Z,23.50
2018-08-20T00:03:48.979Z,23.40
2018-08-20T00:04:22.529Z,23.40
2018-08-20T00:04:59.584Z,23.50
2018-08-20T00:05:36.448Z,23.50
2018-08-20T00:06:09.978Z,23.50
2018-08-20T00:06:54.509Z,23.50
2018-08-20T00:07:28.807Z,23.50
2018-08-20T00:08:02.424Z,23.40
2018-08-20T00:08:36.095Z,23.50
2018-08-20T00:09:09.676Z,23.40
2018-08-20T00:09:46.631Z,23.40
2018-08-20T00:10:20.228Z,23.50
2018-08-20T00:10:56.501Z,23.40
2018-08-20T00:11:30.045Z,23.40
2018-08-20T00:12:04.498Z,23.50
2018-08-20T00:12:38.331Z,23.40
2018-08-20T00:13:13.596Z,23.40
2018-08-20T00:13:47.150Z,23.40
2018-08-20T00:14:22.168Z,23.50
2018-08-20T00:14:55.758Z,23.40
2018-08-20T00:15:29.423Z,23.50
2018-08-20T00:16:03.055Z,23.40
2018-08-20T00:16:36.639Z,23.50
2018-08-20T00:17:10.501Z,23.50
2018-08-20T00:17:44.108Z,23.40
2018-08-20T00:18:22.096Z,23.50
2018-08-20T00:18:55.933Z,23.50
2018-08-20T00:19:29.689Z,23.50
2018-08-20T00:20:03.329Z,23.40
2018-08-20T00:20:36.928Z,23.50
2018-08-20T00:21:10.680Z,23.50
2018-08-20T00:21:45.347Z,23.50
2018-08-20T00:22:19.389Z,23.50
2018-08-20T00:22:52.929Z,23.40
2018-08-20T00:23:27.208Z,23.50
2018-08-20T00:24:00.744Z,23.50
2018-08-20T00:24:34.777Z,23.50
2018-08-20T00:25:15.395Z,23.50
2018-08-20T00:25:49.002Z,23.50
2018-08-20T00:26:23.560Z,23.50
2018-08-20T00:27:00.828Z,23.50
2018-08-20T00:27:34.388Z,23.50
2018-08-20T00:28:08.845Z,23.50
2018-08-20T00:28:42.323Z,23.50
2018-08-20T00:29:16.923Z,23.50
2018-08-20T00:29:50.558Z,23.50
2018-08-20T00:30:24.202Z,23.50
2018-08-20T00:30:58.842Z,23.50
2018-08-20T00:31:32.410Z,23.50
2018-08-20T00:32:06.300Z,23.40
2018-08-20T00:32:41.267Z,23.50
2018-08-20T00:33:15.364Z,23.50
2018-08-20T00:33:49.257Z,23.40
2018-08-20T00:34:23.270Z,23.50
2018-08-20T00:34:56.819Z,23.40
2018-08-20T00:35:31.059Z,23.40
2018-08-20T00:36:05.143Z,23.50
2018-08-20T00:36:38.711Z,23.40
2018-08-20T00:37:12.660Z,23.40
2018-08-20T00:37:48.889Z,23.40
2018-08-20T00:38:22.954Z,23.40
2018-08-20T00:38:56.948Z,23.40
2018-08-20T00:39:30.528Z,23.40
2018-08-20T00:40:04.905Z,23.40
2018-08-20T00:40:38.483Z,23.40
2018-08-20T00:41:12.055Z,23.40
2018-08-20T00:41:46.776Z,23.40
2018-08-20T00:42:20.337Z,23.40
2018-08-20T00:42:53.900Z,23.40
2018-08-20T00:43:27.556Z,23.40
2018-08-20T00:44:01.133Z,23.40
2018-08-20T00:44:35.335Z,23.40
2018-08-20T00:45:09.574Z,23.30
2018-08-20T00:45:43.707Z,23.40
2018-08-20T00:46:17.334Z,23.30
2018-08-20T00:46:50.883Z,23.30
2018-08-20T00:47:24.470Z,23.30
2018-08-20T00:47:58.004Z,23.30
2018-08-20T00:48:31.917Z,23.30
2018-08-20T00:49:05.510Z,23.30
2018-08-20T00:49:39.503Z,23.30
2018-08-20T00:50:13.092Z,23.30
2018-08-20T00:50:47.064Z,23.30
2018-08-20T00:51:20.621Z,23.30
2018-08-20T00:51:54.797Z,23.30
2018-08-20T00:52:28.295Z,23.30
2018-08-20T00:53:02.261Z,23.30
2018-08-20T00:53:35.828Z,23.30
2018-08-20T00:54:09.589Z,23.30
2018-08-20T00:54:43.246Z,23.30
2018-08-20T00:55:16.748Z,23.30
2018-08-20T00:55:50.407Z,23.30
2018-08-20T00:56:24.025Z,23.30
2018-08-20T00:56:58.222Z,23.30
2018-08-20T00:57:31.751Z,23.30
2018-08-20T00:58:05.279Z,23.30
2018-08-20T00:58:38.938Z,23.30
2018-08-20T00:59:12.568Z,23.30
2018-08-20T00:59:46.072Z,23.30
2018-08-20T01:00:19.650Z,23.30
2018-08-20T01:00:53.292Z,23.30
2018-08-20T01:01:27.770Z,23.20
2018-08-20T01:02:01.990Z,23.30
2018-08-20T01:02:35.526Z,23.30
2018-08-20T01:03:09.026Z,23.20
2018-08-20T01:03:42.542Z,23.20
2018-08-20T01:04:16.944Z,23.20
2018-08-20T01:04:50.464Z,23.20
2018-08-20T01:05:24.187Z,23.20
2018-08-20T01:05:57.868Z,23.20
2018-08-20T01:06:31.888Z,23.20
2018-08-20T01:07:05.615Z,23.30
2018-08-20T01:07:39.171Z,23.20
2018-08-20T01:08:12.781Z,23.20
2018-08-20T01:08:46.284Z,23.20
2018-08-20T01:09:19.881Z,23.20
2018-08-20T01:09:53.803Z,23.20
2018-08-20T01:10:28.247Z,23.20
2018-08-20T01:11:01.831Z,23.20
2018-08-20T01:11:35.539Z,23.20
2018-08-20T01:12:09.974Z,23.30
2018-08-20T01:12:43.518Z,23.20
2018-08-20T01:13:17.431Z,23.20
2018-08-20T01:13:50.997Z,23.20
2018-08-20T01:14:24.548Z,23.20
2018-08-20T01:14:58.727Z,23.20
2018-08-20T01:15:32.574Z,23.20
2018-08-20T01:16:06.159Z,23.20
2018-08-20T01:16:39.743Z,23.30
2018-08-20T01:17:13.355Z,23.20
2018-08-20T01:17:46.903Z,23.20
2018-08-20T01:18:20.516Z,23.20
2018-08-20T01:18:54.119Z,23.20
2018-08-20T01:19:27.688Z,23.20
2018-08-20T01:20:01.723Z,23.20
2018-08-20T01:20:35.808Z,23.20
2018-08-20T01:21:10.000Z,23.20
2018-08-20T01:21:43.541Z,23.20
2018-08-20T01:22:17.551Z,23.20
2018-08-20T01:22:51.180Z,23.20
2018-08-20T01:23:25.653Z,23.20
2018-08-20T01:23:59.222Z,23.20
2018-08-20T01:24:33.246Z,23.10
2018-08-20T01:25:07.233Z,23.20
2018-08-20T01:25:40.749Z,23.10
2018-08-20T01:26:14.648Z,23.20
2018-08-20T01:26:48.220Z,23.20
2018-08-20T01:27:28.868Z,23.20
2018-08-20T01:28:03.301Z,23.20
2018-08-20T01:28:36.909Z,23.20
2018-08-20T01:29:10.647Z,23.10
2018-08-20T01:29:44.464Z,23.10
2018-08-20T01:30:18.216Z,23.10
2018-08-20T01:30:51.785Z,23.10
2018-08-20T01:31:25.364Z,23.10
2018-08-20T01:31:59.188Z,23.10
2018-08-20T01:32:32.744Z,23.10
2018-08-20T01:33:11.480Z,23.10
2018-08-20T01:33:45.963Z,23.10
2018-08-20T01:34:19.659Z,23.10
2018-08-20T01:34:53.288Z,23.10
2018-08-20T01:35:27.992Z,23.10
2018-08-20T01:36:01.542Z,23.10
2018-08-20T01:36:35.087Z,23.10
2018-08-20T01:37:09.776Z,23.10
2018-08-20T01:37:43.812Z,23.10
2018-08-20T01:38:17.387Z,23.10
2018-08-20T01:38:50.916Z,23.10
2018-08-20T01:39:24.423Z,23.10
2018-08-20T01:39:58.004Z,23.10
2018-08-20T01:40:31.634Z,23.00
2018-08-20T01:41:05.143Z,23.10
2018-08-20T01:41:38.669Z,23.10
2018-08-20T01:42:12.762Z,23.10
2018-08-20T01:42:46.376Z,23.10
2018-08-20T01:43:19.920Z,23.10
2018-08-20T01:43:53.486Z,23.10
2018-08-20T01:44:26.961Z,23.10
2018-08-20T01:45:00.484Z,23.10
2018-08-20T01:45:34.075Z,23.10
2018-08-20T01:46:07.626Z,23.00
2018-08-20T01:46:41.847Z,23.00
2018-08-20T01:47:15.939Z,23.10
2018-08-20T01:47:49.520Z,23.10
2018-08-20T01:48:23.072Z,23.00
2018-08-20T01:48:56.638Z,23.00
2018-08-20T01:49:30.167Z,23.00
2018-08-20T01:50:03.798Z,23.00
2018-08-20T01:50:37.396Z,23.00
2018-08-20T01:51:10.984Z,23.00
2018-08-20T01:51:44.580Z,23.00
2018-08-20T01:52:18.141Z,23.00
2018-08-20T01:52:52.377Z,23.00
2018-08-20T01:53:25.946Z,23.00
2018-08-20T01:54:00.064Z,23.00
2018-08-20T01:54:34.316Z,23.00
2018-08-20T01:55:07.967Z,23.00
2018-08-20T01:55:41.499Z,23.00
2018-08-20T01:56:15.311Z,23.00
2018-08-20T01:56:49.337Z,23.00
2018-08-20T01:57:22.935Z,23.00
2018-08-20T01:57:56.619Z,23.00
2018-08-20T01:58:30.294Z,23.00
2018-08-20T01:59:04.706Z,23.00
2018-08-20T01:59:39.005Z,23.00
2018-08-20T02:00:12.570Z,23.00
2018-08-20T02:00:46.467Z,23.00
2018-08-20T02:01:20.599Z,23.00
2018-08-20T02:01:54.152Z,23.00
2018-08-20T02:02:28.268Z,23.00
2018-08-20T02:03:02.994Z,23.00
2018-08-20T02:03:37.201Z,23.00
2018-08-20T02:04:10.738Z,23.00
2018-08-20T02:04:44.761Z,23.00
2018-08-20T02:05:18.525Z,23.00
2018-08-20T02:05:52.139Z,23.00
2018-08-20T02:06:26.389Z,23.00
2018-08-20T02:07:00.132Z,23.00
2018-08-20T02:07:33.716Z,23.00
2018-08-20T02:08:07.695Z,22.90
2018-08-20T02:08:41.333Z,23.00
2018-08-20T02:09:14.908Z,22.90
2018-08-20T02:09:48.435Z,22.90
2018-08-20T02:10:22.086Z,22.90
2018-08-20T02:10:55.729Z,22.90
2018-08-20T02:11:29.317Z,22.90
2018-08-20T02:12:02.960Z,22.90
2018-08-20T02:12:36.640Z,22.90
2018-08-20T02:13:10.244Z,22.90
2018-08-20T02:13:44.015Z,22.80
2018-08-20T02:14:17.680Z,22.80
2018-08-20T02:14:51.685Z,22.80
2018-08-20T02:15:25.620Z,22.80
2018-08-20T02:15:59.287Z,22.80
2018-08-20T02:16:32.832Z,22.80
2018-08-20T02:17:06.789Z,22.80
2018-08-20T02:17:40.374Z,22.80
2018-08-20T02:18:14.241Z,22.80
2018-08-20T02:18:47.779Z,22.80
2018-08-20T02:19:21.331Z,22.70
2018-08-20T02:19:54.940Z,22.80
2018-08-20T02:20:29.111Z,22.80
2018-08-20T02:21:02.744Z,22.80
2018-08-20T02:21:36.441Z,22.80
2018-08-20T02:22:10.035Z,22.70
2018-08-20T02:22:44.122Z,22.70
2018-08-20T02:23:17.688Z,22.70
2018-08-20T02:23:52.253Z,22.70
2018-08-20T02:24:26.331Z,22.70
2018-08-20T02:25:00.001Z,22.70
2018-08-20T02:25:33.645Z,22.70
2018-08-20T02:26:07.433Z,22.70
2018-08-20T02:26:40.964Z,22.70
2018-08-20T02:27:14.571Z,22.70
2018-08-20T02:27:48.094Z,22.70
2018-08-20T02:28:22.258Z,22.70
2018-08-20T02:28:55.828Z,22.70
2018-08-20T02:29:29.354Z,22.70
2018-08-20T02:30:03.550Z,22.60
2018-08-20T02:30:37.073Z,22.70
2018-08-20T02:31:10.716Z,22.70
2018-08-20T02:31:44.280Z,22.70
2018-08-20T02:32:17.879Z,22.60
2018-08-20T02:32:51.411Z,22.60
2018-08-20T02:33:25.406Z,22.60
2018-08-20T02:33:59.036Z,22.60
2018-08-20T02:34:33.042Z,22.60
2018-08-20T02:35:07.374Z,22.60
2018-08-20T02:35:41.440Z,22.60
2018-08-20T02:36:15.058Z,22.60
2018-08-20T02:36:48.632Z,22.60
2018-08-20T02:37:22.212Z,22.60
2018-08-20T02:37:56.057Z,22.60
2018-08-20T02:38:30.617Z,22.60
2018-08-20T02:39:07.306Z,22.60
2018-08-20T02:39:40.915Z,22.60
2018-08-20T02:40:16.113Z,22.60
2018-08-20T02:40:49.692Z,22.60
2018-08-20T02:41:23.318Z,22.60
2018-08-20T02:41:56.901Z,22.60
2018-08-20T02:42:30.960Z,22.60
2018-08-20T02:43:04.526Z,22.50
2018-08-20T02:43:38.103Z,22.50
2018-08-20T02:44:12.761Z,22.60
2018-08-20T02:44:46.703Z,22.60
2018-08-20T02:45:20.298Z,22.50
2018-08-20T02:45:53.824Z,22.50
2018-08-20T02:46:48.562Z,22.50
2018-08-20T02:47:22.193Z,22.50
2018-08-20T02:47:55.735Z,22.50
2018-08-20T02:48:29.431Z,22.50
2018-08-20T02:49:03.008Z,22.40
2018-08-20T02:49:36.614Z,22.50
2018-08-20T02:50:10.872Z,22.50
2018-08-20T02:50:44.456Z,22.50
2018-08-20T02:51:17.984Z,22.40
2018-08-20T02:51:51.699Z,22.40
2018-08-20T02:52:25.338Z,22.50
2018-08-20T02:52:59.237Z,22.50
2018-08-20T02:53:32.788Z,22.50
2018-08-20T02:54:06.412Z,22.50
2018-08-20T02:54:40.026Z,22.40
2018-08-20T02:55:13.988Z,22.40
2018-08-20T02:55:48.821Z,22.40
2018-08-20T02:56:23.771Z,22.40
2018-08-20T02:56:58.211Z,22.40
2018-08-20T02:57:31.746Z,22.40
2018-08-20T02:58:06.168Z,22.40
2018-08-20T02:58:39.750Z,22.40
2018-08-20T02:59:14.318Z,22.40
2018-08-20T02:59:47.836Z,22.30
2018-08-20T03:00:21.438Z,22.40
2018-08-20T03:00:55.091Z,22.40
2018-08-20T03:01:28.620Z,22.30
2018-08-20T03:02:02.235Z,22.40
2018-08-20T03:02:35.709Z,22.40
2018-08-20T03:03:09.571Z,22.40
2018-08-20T03:03:43.946Z,22.40
2018-08-20T03:04:17.487Z,22.30
2018-08-20T03:04:52.569Z,22.40
2018-08-20T03:05:26.143Z,22.40
2018-08-20T03:05:59.703Z,22.30
2018-08-20T03:06:33.269Z,22.30
2018-08-20T03:07:06.882Z,22.30
2018-08-20T03:07:40.628Z,22.40
2018-08-20T03:08:14.276Z,22.30
2018-08-20T03:08:47.819Z,22.30
2018-08-20T03:09:21.471Z,22.30
2018-08-20T03:09:55.018Z,22.40
2018-08-20T03:10:28.573Z,22.40
2018-08-20T03:11:02.065Z,22.40
2018-08-20T03:11:35.695Z,22.30
2018-08-20T03:12:09.358Z,22.40
2018-08-20T03:12:43.077Z,22.40
2018-08-20T03:13:16.851Z,22.40
2018-08-20T03:13:50.365Z,22.40
2018-08-20T03:14:24.928Z,22.40
2018-08-20T03:14:59.842Z,22.30
2018-08-20T03:15:34.986Z,22.30
2018-08-20T03:16:08.565Z,22.40
2018-08-20T03:16:42.165Z,22.20
2018-08-20T03:17:15.746Z,22.30
2018-08-20T03:17:49.340Z,22.30
2018-08-20T03:18:22.842Z,22.30
2018-08-20T03:18:56.386Z,22.30
2018-08-20T03:19:29.912Z,22.30
2018-08-20T03:20:03.979Z,22.30
2018-08-20T03:20:37.536Z,22.30
2018-08-20T03:21:11.392Z,22.20
2018-08-20T03:21:45.029Z,22.30
2018-08-20T03:22:18.564Z,22.30
2018-08-20T03:22:52.158Z,22.30
2018-08-20T03:23:25.717Z,22.30
2018-08-20T03:23:59.850Z,22.30
2018-08-20T03:24:34.389Z,22.30
2018-08-20T03:25:08.438Z,22.30
2018-08-20T03:25:42.023Z,22.30
2018-08-20T03:26:15.612Z,22.30
2018-08-20T03:26:49.194Z,22.30
2018-08-20T03:27:22.816Z,22.30
2018-08-20T03:27:57.297Z,22.30
2018-08-20T03:28:30.859Z,22.30
2018-08-20T03:29:04.454Z,22.30
2018-08-20T03:29:38.668Z,22.30
2018-08-20T03:30:12.364Z,22.30
2018-08-20T03:30:45.905Z,22.30
2018-08-20T03:31:19.439Z,22.30
2018-08-20T03:31:53.107Z,22.20
2018-08-20T03:32:26.655Z,22.30
2018-08-20T03:33:00.172Z,22.30
2018-08-20T03:33:33.884Z,22.20
2018-08-20T03:34:07.570Z,22.30
2018-08-20T03:34:41.140Z,22.30
2018-08-20T03:35:15.364Z,22.30
2018-08-20T03:35:48.930Z,22.30
2018-08-20T03:36:22.557Z,22.30
2018-08-20T03:36:56.176Z,22.30
2018-08-20T03:37:29.734Z,22.20
2018-08-20T03:38:03.831Z,22.20
2018-08-20T03:38:37.368Z,22.30
2018-08-20T03:39:11.021Z,22.20
2018-08-20T03:39:45.341Z,22.30
2018-08-20T03:40:18.895Z,22.30
2018-08-20T03:40:52.448Z,22.20
2018-08-20T03:41:26.585Z,22.30
2018-08-20T03:42:00.147Z,22.30
2018-08-20T03:42:33.738Z,22.30
2018-08-20T03:43:07.344Z,22.20
2018-08-20T03:43:40.900Z,22.20
2018-08-20T03:44:14.432Z,22.20
2018-08-20T03:44:49.175Z,22.20
2018-08-20T03:45:22.755Z,22.20
2018-08-20T03:45:56.432Z,22.20
2018-08-20T03:46:30.026Z,22.20
2018-08-20T03:47:03.695Z,22.20
2018-08-20T03:47:37.261Z,22.20
2018-08-20T03:48:10.849Z,22.20
2018-08-20T03:48:44.408Z,22.20
2018-08-20T03:49:17.962Z,22.20
2018-08-20T03:49:51.928Z,22.20
2018-08-20T03:50:25.490Z,22.10
2018-08-20T03:50:59.252Z,22.20
2018-08-20T03:51:32.839Z,22.20
2018-08-20T03:52:06.593Z,22.20
2018-08-20T03:52:40.225Z,22.20
2018-08-20T03:53:13.806Z,22.20
2018-08-20T03:53:47.422Z,22.20
2018-08-20T03:54:21.023Z,22.20
2018-08-20T03:54:54.568Z,22.20
2018-08-20T03:55:28.347Z,22.20
2018-08-20T03:56:01.982Z,22.20
2018-08-20T03:56:35.574Z,22.20
2018-08-20T03:57:09.196Z,22.20
2018-08-20T03:57:42.754Z,22.20
2018-08-20T03:58:16.383Z,22.20
2018-08-20T03:58:49.956Z,22.20
2018-08-20T03:59:35.180Z,22.20
2018-08-20T04:00:10.350Z,22.20
2018-08-20T04:00:44.251Z,22.20
2018-08-20T04:01:17.826Z,22.30
2018-08-20T04:01:51.875Z,22.20
2018-08-20T04:02:25.800Z,22.20
2018-08-20T04:02:59.340Z,22.30
2018-08-20T04:03:33.208Z,22.30
2018-08-20T04:04:06.808Z,22.20
2018-08-20T04:04:40.348Z,22.20
2018-08-20T04:05:15.180Z,22.20
2018-08-20T04:05:48.752Z,22.10
2018-08-20T04:06:22.324Z,22.20
2018-08-20T04:06:55.832Z,22.20
2018-08-20T04:07:29.377Z,22.20
2018-08-20T04:08:02.920Z,22.20
2018-08-20T04:08:36.444Z,22.20
2018-08-20T04:09:10.000Z,22.20
2018-08-20T04:09:43.559Z,22.10
2018-08-20T04:10:17.129Z,22.10
2018-08-20T04:10:50.685Z,22.10
2018-08-20T04:11:24.265Z,22.10
2018-08-20T04:11:58.161Z,22.10
2018-08-20T04:12:31.692Z,22.10
2018-08-20T04:13:05.323Z,22.10
2018-08-20T04:13:38.843Z,22.10
2018-08-20T04:14:12.376Z,22.10
2018-08-20T04:14:45.941Z,22.10
2018-08-20T04:15:19.492Z,22.10
2018-08-20T04:15:53.272Z,22.10
2018-08-20T04:16:26.807Z,22.10
2018-08-20T04:17:00.642Z,22.10
2018-08-20T04:17:34.240Z,22.10
2018-08-20T04:18:07.836Z,22.10
2018-08-20T04:18:41.442Z,22.10
2018-08-20T04:19:15.805Z,22.10
2018-08-20T04:19:50.050Z,22.10
2018-08-20T04:20:24.242Z,22.10
2018-08-20T04:20:57.840Z,22.10
2018-08-20T04:21:31.365Z,22.10
2018-08-20T04:22:04.991Z,22.10
2018-08-20T04:22:38.531Z,22.10
2018-08-20T04:23:12.096Z,22.10
2018-08-20T04:23:45.665Z,22.00
2018-08-20T04:24:20.234Z,22.10
2018-08-20T04:24:53.811Z,22.10
2018-08-20T04:25:27.369Z,22.10
2018-08-20T04:26:00.950Z,22.10
2018-08-20T04:26:34.469Z,22.10
2018-08-20T04:27:09.002Z,22.00
2018-08-20T04:27:42.513Z,22.00
2018-08-20T04:28:16.040Z,22.00
2018-08-20T04:28:49.640Z,22.00
2018-08-20T04:29:23.232Z,22.00
2018-08-20T04:29:56.895Z,22.00
2018-08-20T04:30:30.472Z,22.00
2018-08-20T04:31:04.024Z,22.00
2018-08-20T04:31:37.685Z,22.00
2018-08-20T04:32:11.269Z,22.00
2018-08-20T04:32:44.826Z,22.00
2018-08-20T04:33:18.342Z,22.00
2018-08-20T04:33:52.782Z,22.00
2018-08-20T04:34:27.142Z,22.00
2018-08-20T04:35:00.672Z,22.00
2018-08-20T04:35:34.399Z,22.00
2018-08-20T04:36:08.183Z,22.00
2018-08-20T04:36:41.713Z,21.90
2018-08-20T04:37:15.228Z,21.90
2018-08-20T04:37:48.845Z,21.90
2018-08-20T04:38:23.024Z,21.90
2018-08-20T04:38:56.612Z,21.90
2018-08-20T04:39:30.116Z,21.90
2018-08-20T04:40:04.844Z,21.90
2018-08-20T04:40:39.028Z,21.90
2018-08-20T04:41:12.589Z,21.90
2018-08-20T04:41:46.138Z,21.90
2018-08-20T04:42:19.771Z,21.90
2018-08-20T04:42:53.365Z,21.90
2018-08-20T04:43:26.957Z,21.90
2018-08-20T04:44:00.735Z,22.00
2018-08-20T04:44:35.059Z,22.00
2018-08-20T04:45:09.476Z,22.00
2018-08-20T04:45:43.044Z,22.00
2018-08-20T04:46:17.215Z,22.00
2018-08-20T04:46:50.800Z,22.00
2018-08-20T04:47:24.360Z,22.00
2018-08-20T04:47:57.926Z,22.00
2018-08-20T04:48:31.515Z,22.00
2018-08-20T04:49:05.146Z,22.00
2018-08-20T04:49:38.724Z,22.00
2018-08-20T04:50:13.247Z,22.00
2018-08-20T04:50:46.799Z,22.00
2018-08-20T04:51:20.749Z,22.00
2018-08-20T04:51:54.141Z,22.00
2018-08-20T04:52:28.496Z,22.00
2018-08-20T04:53:02.882Z,22.10
2018-08-20T04:53:36.478Z,22.00
2018-08-20T04:54:10.142Z,22.00
2018-08-20T04:54:44.336Z,22.00
2018-08-20T04:55:17.880Z,22.00
2018-08-20T04:55:51.455Z,22.10
2018-08-20T04:56:25.695Z,22.10
2018-08-20T04:56:59.673Z,22.10
2018-08-20T04:57:33.252Z,22.10
2018-08-20T04:58:06.761Z,22.10
2018-08-20T04:58:40.787Z,22.10
2018-08-20T04:59:14.328Z,22.10
2018-08-20T04:59:49.054Z,22.00
2018-08-20T05:00:22.667Z,22.10
2018-08-20T05:00:56.293Z,22.00
2018-08-20T05:01:29.841Z,22.10
2018-08-20T05:02:03.500Z,22.10
2018-08-20T05:02:37.068Z,22.10
2018-08-20T05:03:14.924Z,22.10
2018-08-20T05:03:49.113Z,22.10
2018-08-20T05:04:22.643Z,22.10
2018-08-20T05:04:56.186Z,22.10
2018-08-20T05:05:29.991Z,22.10
2018-08-20T05:06:03.605Z,22.10
2018-08-20T05:06:37.223Z,22.10
2018-08-20T05:07:11.412Z,22.10
2018-08-20T05:07:44.981Z,22.10
2018-08-20T05:08:18.594Z,22.10
2018-08-20T05:08:52.164Z,22.10
2018-08-20T05:09:25.669Z,22.10
2018-08-20T05:09:59.567Z,22.10
2018-08-20T05:10:33.083Z,22.10
2018-08-20T05:11:06.737Z,22.10
2018-08-20T05:11:40.233Z,22.10
2018-08-20T05:12:13.947Z,22.10
2018-08-20T05:12:47.484Z,22.10
2018-08-20T05:13:21.695Z,22.10
2018-08-20T05:13:55.517Z,22.10
2018-08-20T05:14:29.026Z,22.10
2018-08-20T05:15:02.621Z,22.10
2018-08-20T05:15:36.201Z,22.10
2018-08-20T05:16:09.798Z,22.10
2018-08-20T05:16:43.329Z,22.10
2018-08-20T05:17:16.875Z,22.10
2018-08-20T05:17:50.503Z,22.10
2018-08-20T05:18:24.508Z,22.00
2018-08-20T05:18:58.971Z,22.00
2018-08-20T05:19:32.545Z,22.00
2018-08-20T05:20:07.277Z,22.00
2018-08-20T05:20:40.818Z,22.00
2018-08-20T05:21:14.324Z,22.00
2018-08-20T05:21:47.877Z,22.00
2018-08-20T05:22:21.425Z,22.00
2018-08-20T05:22:55.004Z,22.00
2018-08-20T05:23:28.870Z,22.00
2018-08-20T05:24:02.440Z,22.00
2018-08-20T05:24:37.205Z,22.00
2018-08-20T05:25:11.362Z,22.00
2018-08-20T05:25:44.882Z,22.10
2018-08-20T05:26:18.856Z,22.00
2018-08-20T05:26:52.401Z,22.00
2018-08-20T05:27:25.969Z,22.00
2018-08-20T05:28:00.223Z,22.00
2018-08-20T05:28:33.772Z,22.00
2018-08-20T05:29:07.634Z,22.00
2018-08-20T05:29:41.214Z,22.00
2018-08-20T05:30:14.717Z,22.00
2018-08-20T05:30:48.310Z,22.00
2018-08-20T05:31:21.835Z,22.00
2018-08-20T05:31:56.129Z,22.10
2018-08-20T05:32:29.869Z,22.00
2018-08-20T05:33:04.197Z,22.10
2018-08-20T05:33:37.751Z,22.10
2018-08-20T05:34:12.100Z,22.10
2018-08-20T05:34:45.692Z,22.10
2018-08-20T05:35:19.908Z,22.10
2018-08-20T05:35:53.468Z,22.10
2018-08-20T05:36:27.026Z,22.10
2018-08-20T05:37:01.085Z,22.10
2018-08-20T05:37:34.696Z,22.10
2018-08-20T05:38:08.976Z,22.10
2018-08-20T05:38:42.729Z,22.10
2018-08-20T05:39:16.223Z,22.10
2018-08-20T05:39:50.295Z,22.10
2018-08-20T05:40:23.873Z,22.00
2018-08-20T05:40:57.428Z,22.10
2018-08-20T05:41:30.988Z,22.10
2018-08-20T05:42:04.880Z,22.10
2018-08-20T05:42:38.428Z,22.00
2018-08-20T05:43:11.915Z,22.10
2018-08-20T05:43:45.537Z,22.10
2018-08-20T05:44:20.833Z,22.10
2018-08-20T05:44:55.257Z,22.00
2018-08-20T05:45:28.815Z,22.00
2018-08-20T05:46:02.547Z,22.00
2018-08-20T05:46:36.391Z,22.00
2018-08-20T05:47:10.007Z,22.00
2018-08-20T05:47:43.534Z,22.00
2018-08-20T05:48:17.619Z,22.00
2018-08-20T05:48:51.344Z,22.00
2018-08-20T05:49:25.021Z,22.00
2018-08-20T05:49:59.090Z,22.00
2018-08-20T05:50:32.719Z,22.00
2018-08-20T05:51:06.342Z,22.00
2018-08-20T05:51:39.930Z,22.00
2018-08-20T05:52:13.422Z,22.00
2018-08-20T05:52:46.984Z,22.00
2018-08-20T05:53:21.227Z,22.00
2018-08-20T05:53:54.724Z,22.00
2018-08-20T05:54:28.383Z,22.00
2018-08-20T05:55:02.283Z,22.00
2018-08-20T05:55:36.564Z,22.00
2018-08-20T05:56:10.076Z,22.00
2018-08-20T05:56:43.654Z,22.10
2018-08-20T05:57:17.279Z,22.10
2018-08-20T05:57:50.845Z,22.00
2018-08-20T05:58:25.163Z,22.10
2018-08-20T05:58:59.440Z,22.00
2018-08-20T05:59:33.031Z,22.00
2018-08-20T06:00:12.251Z,22.00
2018-08-20T06:00:45.887Z,22.00
2018-08-20T06:01:19.891Z,22.00
2018-08-20T06:01:53.507Z,22.00
2018-08-20T06:02:27.378Z,22.00
2018-08-20T06:03:00.986Z,22.00
2018-08-20T06:03:34.685Z,22.00
2018-08-20T06:04:08.914Z,22.00
2018-08-20T06:04:42.580Z,22.00
2018-08-20T06:05:16.140Z,22.00
2018-08-20T06:05:49.711Z,22.00
2018-08-20T06:06:23.277Z,22.10
2018-08-20T06:06:56.857Z,22.10
2018-08-20T06:07:30.409Z,22.10
2018-08-20T06:08:05.372Z,22.00
2018-08-20T06:08:39.554Z,22.10
2018-08-20T06:09:13.134Z,22.10
2018-08-20T06:09:49.295Z,22.00
2018-08-20T06:10:22.860Z,22.10
2018-08-20T06:10:56.416Z,22.00
2018-08-20T06:11:31.845Z,22.00
2018-08-20T06:12:05.477Z,22.10
2018-08-20T06:12:39.845Z,22.10
2018-08-20T06:13:14.381Z,22.10
2018-08-20T06:13:47.965Z,22.10
2018-08-20T06:14:22.284Z,22.10
2018-08-20T06:14:55.886Z,22.10
2018-08-20T06:15:29.593Z,22.10
2018-08-20T06:16:03.193Z,22.10
2018-08-20T06:16:36.808Z,22.10
2018-08-20T06:17:10.350Z,22.10
2018-08-20T06:17:43.893Z,22.10
2018-08-20T06:18:18.052Z,22.10
2018-08-20T06:18:51.636Z,22.10
2018-08-20T06:19:25.873Z,22.10
2018-08-20T06:19:59.367Z,22.10
2018-08-20T06:20:34.240Z,22.10
2018-08-20T06:21:07.840Z,22.10
2018-08-20T06:21:43.078Z,22.10
2018-08-20T06:22:16.661Z,22.10
2018-08-20T06:22:50.231Z,22.10
2018-08-20T06:23:24.640Z,22.10
2018-08-20T06:23:58.178Z,22.10
2018-08-20T06:24:31.705Z,22.10
2018-08-20T06:25:07.160Z,22.10
2018-08-20T06:25:40.652Z,22.10
2018-08-20T06:26:14.652Z,22.10
2018-08-20T06:26:48.224Z,22.10
2018-08-20T06:27:21.810Z,22.10
2018-08-20T06:27:55.403Z,22.10
2018-08-20T06:28:29.015Z,22.10
2018-08-20T06:29:03.560Z,22.10
2018-08-20T06:29:44.678Z,22.10
2018-08-20T06:30:20.822Z,22.10
2018-08-20T06:30:54.583Z,22.10
2018-08-20T06:31:28.242Z,22.10
2018-08-20T06:32:01.987Z,22.10
2018-08-20T06:32:36.145Z,22.10
2018-08-20T06:33:10.503Z,22.20
2018-08-20T06:33:44.095Z,22.10
2018-08-20T06:34:18.469Z,22.10
2018-08-20T06:34:52.109Z,22.20
2018-08-20T06:35:25.624Z,22.10
2018-08-20T06:35:59.182Z,22.20
2018-08-20T06:36:32.757Z,22.20
2018-08-20T06:37:06.621Z,22.10
2018-08-20T06:37:40.318Z,22.20
2018-08-20T06:38:13.864Z,22.20
2018-08-20T06:38:47.968Z,22.20
2018-08-20T06:39:21.632Z,22.20
2018-08-20T06:39:55.189Z,22.10
2018-08-20T06:40:30.590Z,22.20
2018-08-20T06:41:04.238Z,22.20
2018-08-20T06:41:37.813Z,22.10
2018-08-20T06:42:11.332Z,22.20
2018-08-20T06:42:44.896Z,22.20
2018-08-20T06:43:18.417Z,22.20
2018-08-20T06:43:51.974Z,22.20
2018-08-20T06:44:25.546Z,22.20
2018-08-20T06:44:59.915Z,22.20
2018-08-20T06:45:33.550Z,22.20
2018-08-20T06:46:07.868Z,22.30
2018-08-20T06:46:41.412Z,22.20
2018-08-20T06:47:15.006Z,22.20
2018-08-20T06:47:48.687Z,22.20
2018-08-20T06:48:23.336Z,22.30
2018-08-20T06:48:57.598Z,22.30
2018-08-20T06:49:32.769Z,22.30
2018-08-20T06:50:07.379Z,22.30
2018-08-20T06:50:42.073Z,22.30
2018-08-20T06:51:16.112Z,22.30
2018-08-20T06:51:50.668Z,22.30
2018-08-20T06:52:24.701Z,22.20
2018-08-20T06:52:59.071Z,22.30
2018-08-20T06:53:34.128Z,22.30
2018-08-20T06:54:07.948Z,22.20
2018-08-20T06:54:41.509Z,22.30
2018-08-20T06:55:16.019Z,22.30
2018-08-20T06:55:50.308Z,22.30
2018-08-20T06:56:24.476Z,22.30
2018-08-20T06:56:58.817Z,22.30
2018-08-20T06:57:32.441Z,22.30
2018-08-20T06:58:05.987Z,22.30
2018-08-20T06:58:39.508Z,22.30
2018-08-20T06:59:13.092Z,22.30
2018-08-20T06:59:46.662Z,22.30
2018-08-20T07:00:20.215Z,22.30
2018-08-20T07:00:53.801Z,22.30
2018-08-20T07:01:27.393Z,22.40
2018-08-20T07:02:01.035Z,22.40
2018-08-20T07:02:34.578Z,22.40
2018-08-20T07:03:08.162Z,22.30
2018-08-20T07:03:41.879Z,22.40
2018-08-20T07:04:15.955Z,22.40
2018-08-20T07:04:49.518Z,22.40
2018-08-20T07:05:23.131Z,22.40
2018-08-20T07:05:56.656Z,22.30
2018-08-20T07:06:30.313Z,22.30
2018-08-20T07:07:03.976Z,22.30
2018-08-20T07:07:39.479Z,22.30
2018-08-20T07:08:13.145Z,22.30
2018-08-20T07:08:46.688Z,22.30
2018-08-20T07:09:20.247Z,22.30
2018-08-20T07:09:54.572Z,22.30
2018-08-20T07:10:32.431Z,22.30
2018-08-20T07:11:05.991Z,22.30
2018-08-20T07:11:39.790Z,22.30
2018-08-20T07:12:13.442Z,22.30
2018-08-20T07:12:47.075Z,22.30
2018-08-20T07:13:27.442Z,22.30
2018-08-20T07:14:02.052Z,22.20
2018-08-20T07:14:35.772Z,22.20
2018-08-20T07:15:11.810Z,22.20
2018-08-20T07:15:45.387Z,22.20
2018-08-20T07:16:19.636Z,22.20
2018-08-20T07:16:53.350Z,22.20
2018-08-20T07:17:27.591Z,22.20